createdAt,value
2022-09-25T00:01:29.157Z,74.98
2022-09-25T00:03:58.592Z,75.04
2022-09-25T00:06:30.457Z,74.94
2022-09-25T00:08:59.551Z,74.54
2022-09-25T00:11:31.034Z,74.36
2022-09-25T00:14:00.641Z,74.68
2022-09-25T00:16:31.676Z,74.91
2022-09-25T00:19:30.859Z,74.64
2022-09-25T00:21:58.827Z,75.14
2022-09-25T00:24:26.978Z,74.77
2022-09-25T00:26:54.958Z,75.11
2022-09-25T00:29:22.965Z,74.91
2022-09-25T00:31:51.069Z,75.10
2022-09-25T00:34:20.428Z,74.68
2022-09-25T00:36:48.391Z,74.89
2022-09-25T00:39:16.393Z,74.73
2022-09-25T00:41:44.605Z,74.87
2022-09-25T00:44:56.352Z,75.16
2022-09-25T00:47:41.301Z,75.49
2022-09-25T00:50:25.863Z,75.33
2022-09-25T00:52:57.441Z,75.47
2022-09-25T00:55:25.598Z,75.27
2022-09-25T00:57:57.541Z,75.12
2022-09-25T01:00:25.847Z,75.12
2022-09-25T01:02:56.086Z,75.41
2022-09-25T01:05:30.249Z,75.75
2022-09-25T01:08:02.208Z,75.50
2022-09-25T01:10:30.776Z,75.28
2022-09-25T01:13:01.217Z,75.25
2022-09-25T01:15:39.301Z,75.13
2022-09-25T01:18:26.174Z,74.91
2022-09-25T01:21:11.195Z,74.86
2022-09-25T01:24:11.418Z,74.60
2022-09-25T01:27:24.844Z,74.41
2022-09-25T01:30:02.366Z,74.77
2022-09-25T01:32:38.914Z,74.34
2022-09-25T01:35:16.120Z,74.33
2022-09-25T01:37:49.907Z,74.23
2022-09-25T01:40:26.089Z,74.25
2022-09-25T01:43:00.910Z,74.38
2022-09-25T01:45:37.539Z,74.60
2022-09-25T01:48:09.084Z,74.95
2022-09-25T01:50:45.482Z,74.92
2022-09-25T01:53:19.175Z,74.76
2022-09-25T01:55:51.926Z,75.03
2022-09-25T01:58:27.251Z,74.92
2022-09-25T02:01:02.030Z,74.92
2022-09-25T02:03:36.703Z,74.62
2022-09-25T02:06:10.214Z,75.07
2022-09-25T02:08:44.083Z,74.92
2022-09-25T02:11:14.205Z,75.06
2022-09-25T02:13:51.264Z,74.75
2022-09-25T02:16:26.793Z,75.52
2022-09-25T02:19:12.917Z,75.23
2022-09-25T02:21:50.172Z,74.96
2022-09-25T02:24:22.947Z,74.87
2022-09-25T02:26:52.346Z,74.85
2022-09-25T02:29:21.507Z,74.39
2022-09-25T02:31:58.387Z,74.68
2022-09-25T02:34:27.528Z,74.69
2022-09-25T02:36:55.655Z,74.76
2022-09-25T02:39:28.420Z,74.70
2022-09-25T02:42:20.987Z,74.73
2022-09-25T02:45:09.060Z,75.10
2022-09-25T02:47:51.992Z,75.12
2022-09-25T02:50:28.082Z,74.63
2022-09-25T02:56:33.721Z,75.09
2022-09-25T02:59:06.860Z,75.35
2022-09-25T03:01:38.472Z,74.34
2022-09-25T03:04:08.512Z,74.76
2022-09-25T03:06:38.863Z,75.01
2022-09-25T03:09:09.917Z,74.90
2022-09-25T03:11:43.497Z,74.44
2022-09-25T03:14:11.884Z,74.87
2022-09-25T03:16:46.121Z,74.91
2022-09-25T03:19:16.096Z,74.70
2022-09-25T03:21:44.103Z,74.80
2022-09-25T03:24:12.288Z,74.89
2022-09-25T03:26:41.437Z,74.78
2022-09-25T03:29:09.913Z,74.87
2022-09-25T03:31:38.359Z,75.17
2022-09-25T03:34:06.514Z,75.54
2022-09-25T03:36:36.310Z,75.54
2022-09-25T03:39:05.972Z,75.07
2022-09-25T03:41:35.715Z,75.57
2022-09-25T03:44:04.866Z,75.18
2022-09-25T03:46:36.394Z,75.00
2022-09-25T03:49:05.007Z,75.53
2022-09-25T03:51:35.137Z,75.09
2022-09-25T03:54:04.128Z,75.34
2022-09-25T03:56:32.640Z,74.76
2022-09-25T03:59:00.944Z,74.84
2022-09-25T04:01:29.819Z,74.84
2022-09-25T04:03:58.272Z,74.92
2022-09-25T04:06:27.401Z,74.94
2022-09-25T04:08:56.699Z,74.92
2022-09-25T04:11:25.628Z,75.07
2022-09-25T04:13:53.996Z,74.95
2022-09-25T04:16:22.444Z,74.86
2022-09-25T04:18:51.232Z,74.72
2022-09-25T04:21:19.309Z,74.21
2022-09-25T04:24:07.549Z,74.79
2022-09-25T04:26:36.956Z,74.83
2022-09-25T04:29:05.384Z,74.83
2022-09-25T04:31:34.378Z,75.00
2022-09-25T04:34:03.022Z,74.93
2022-09-25T04:36:31.004Z,74.54
2022-09-25T04:38:59.024Z,74.82
2022-09-25T04:41:27.052Z,74.82
2022-09-25T04:43:56.403Z,74.76
2022-09-25T04:46:24.431Z,74.67
2022-09-25T04:48:52.448Z,74.80
2022-09-25T04:51:20.443Z,74.67
2022-09-25T04:53:48.427Z,74.65
2022-09-25T04:56:16.948Z,74.59
2022-09-25T04:58:47.348Z,74.34
2022-09-25T05:01:19.077Z,74.40
2022-09-25T05:03:49.953Z,74.10
2022-09-25T05:06:18.181Z,74.17
2022-09-25T05:08:49.263Z,74.19
2022-09-25T05:11:17.416Z,74.21
2022-09-25T05:13:47.219Z,74.10
2022-09-25T05:16:16.624Z,74.38
2022-09-25T05:18:44.686Z,74.29
2022-09-25T05:21:12.739Z,74.40
2022-09-25T05:23:40.732Z,74.60
2022-09-25T05:26:11.235Z,74.76
2022-09-25T05:28:39.327Z,74.73
2022-09-25T05:31:07.918Z,75.22
2022-09-25T05:33:37.529Z,74.95
2022-09-25T05:36:08.529Z,74.79
2022-09-25T05:38:39.805Z,74.85
2022-09-25T05:41:10.005Z,75.17
2022-09-25T05:43:42.777Z,74.81
2022-09-25T05:46:11.983Z,74.63
2022-09-25T05:48:41.575Z,74.77
2022-09-25T05:51:10.848Z,74.52
2022-09-25T05:53:39.228Z,74.33
2022-09-25T05:56:07.997Z,75.05
2022-09-25T05:58:36.571Z,74.55
2022-09-25T06:01:07.264Z,74.51
2022-09-25T06:03:36.121Z,74.52
2022-09-25T06:06:06.095Z,74.60
2022-09-25T06:08:35.467Z,74.75
2022-09-25T06:11:05.216Z,74.51
2022-09-25T06:13:35.171Z,74.85
2022-09-25T06:16:03.961Z,74.99
2022-09-25T06:18:33.166Z,74.89
2022-09-25T06:21:03.363Z,74.86
2022-09-25T06:23:32.825Z,74.78
2022-09-25T06:26:05.076Z,74.95
2022-09-25T06:28:33.594Z,75.15
2022-09-25T06:31:03.516Z,74.76
2022-09-25T06:33:32.141Z,75.00
2022-09-25T06:36:00.513Z,75.06
2022-09-25T06:38:28.725Z,75.26
2022-09-25T06:41:00.779Z,75.19
2022-09-25T06:43:30.393Z,74.97
2022-09-25T06:46:03.489Z,75.25
2022-09-25T06:48:32.149Z,75.24
2022-09-25T06:51:01.756Z,74.99
2022-09-25T06:53:29.918Z,75.10
2022-09-25T06:56:00.870Z,74.65
2022-09-25T06:58:31.343Z,74.99
2022-09-25T07:00:59.607Z,74.96
2022-09-25T07:03:44.725Z,74.77
2022-09-25T07:06:15.228Z,75.85
2022-09-25T07:08:44.559Z,75.51
2022-09-25T07:11:16.451Z,75.26
2022-09-25T07:13:44.940Z,75.78
2022-09-25T07:16:15.410Z,75.48
2022-09-25T07:18:44.720Z,75.73
2022-09-25T07:21:14.991Z,75.29
2022-09-25T07:23:43.820Z,75.09
2022-09-25T07:26:17.049Z,75.59
2022-09-25T07:28:45.668Z,75.99
2022-09-25T07:31:17.281Z,76.39
2022-09-25T07:33:46.093Z,76.43
2022-09-25T07:36:16.076Z,76.10
2022-09-25T07:38:46.143Z,76.03
2022-09-25T07:41:15.646Z,75.80
2022-09-25T07:43:43.892Z,75.82
2022-09-25T07:46:12.399Z,75.84
2022-09-25T07:48:40.924Z,75.91
2022-09-25T07:51:12.365Z,75.61
2022-09-25T07:53:41.184Z,75.83
2022-09-25T07:56:11.615Z,76.07
2022-09-25T07:58:41.835Z,75.39
2022-09-25T08:01:13.534Z,75.95
2022-09-25T08:03:41.834Z,76.01
2022-09-25T08:06:13.215Z,76.13
2022-09-25T08:08:42.901Z,76.16
2022-09-25T08:11:13.207Z,75.92
2022-09-25T08:13:43.617Z,75.70
2022-09-25T08:16:14.332Z,75.68
2022-09-25T08:18:46.123Z,75.91
2022-09-25T08:21:16.320Z,75.67
2022-09-25T08:23:48.144Z,75.03
2022-09-25T08:26:16.986Z,75.25
2022-09-25T08:28:46.702Z,75.35
2022-09-25T08:31:15.316Z,75.75
2022-09-25T08:33:46.363Z,75.68
2022-09-25T08:36:15.805Z,75.40
2022-09-25T08:38:44.127Z,75.21
2022-09-25T08:41:19.092Z,74.88
2022-09-25T08:44:00.181Z,74.63
2022-09-25T08:46:59.412Z,74.45
2022-09-25T08:49:35.367Z,74.87
2022-09-25T08:52:08.231Z,74.03
2022-09-25T08:54:39.965Z,73.94
2022-09-25T08:57:19.798Z,74.02
2022-09-25T08:59:59.797Z,72.54
2022-09-25T09:02:40.619Z,73.61
2022-09-25T09:05:20.599Z,73.68
2022-09-25T09:07:55.025Z,73.42
2022-09-25T09:10:32.724Z,73.21
2022-09-25T09:13:09.997Z,73.40
2022-09-25T09:15:45.991Z,73.01
2022-09-25T09:18:23.892Z,73.36
2022-09-25T09:20:55.420Z,73.98
2022-09-25T09:23:28.717Z,74.58
2022-09-25T09:26:37.847Z,74.31
2022-09-25T09:29:26.950Z,74.27
2022-09-25T09:32:19.814Z,74.38
2022-09-25T09:35:06.758Z,74.75
2022-09-25T09:37:59.942Z,73.85
2022-09-25T09:40:49.169Z,73.04
2022-09-25T09:43:39.886Z,73.54
2022-09-25T09:46:43.021Z,72.79
2022-09-25T09:49:43.279Z,73.07
2022-09-25T09:52:18.044Z,73.30
2022-09-25T09:54:52.364Z,73.60
2022-09-25T09:57:26.343Z,73.56
2022-09-25T10:00:04.375Z,73.07
2022-09-25T10:02:43.584Z,73.32
2022-09-25T10:05:24.421Z,73.26
2022-09-25T10:07:53.093Z,73.40
2022-09-25T10:10:23.436Z,72.97
2022-09-25T10:12:54.865Z,72.87
2022-09-25T10:15:30.858Z,73.44
2022-09-25T10:18:02.095Z,73.52
2022-09-25T10:20:45.303Z,73.63
2022-09-25T10:23:32.623Z,73.58
2022-09-25T10:26:00.961Z,73.12
2022-09-25T10:28:34.233Z,73.01
2022-09-25T10:31:08.839Z,73.81
2022-09-25T10:33:38.011Z,72.59
2022-09-25T10:36:08.184Z,72.43
2022-09-25T10:38:41.968Z,73.15
2022-09-25T10:41:13.161Z,73.38
2022-09-25T10:44:01.160Z,72.85
2022-09-25T10:46:49.409Z,72.66
2022-09-25T10:49:38.683Z,73.08
2022-09-25T10:52:11.563Z,72.69
2022-09-25T10:54:44.836Z,71.93
2022-09-25T10:57:34.059Z,72.72
2022-09-25T11:00:03.707Z,72.91
2022-09-25T11:02:40.103Z,72.90
2022-09-25T11:05:16.631Z,72.78
2022-09-25T11:07:52.169Z,72.49
2022-09-25T11:10:22.980Z,72.03
2022-09-25T11:12:52.536Z,73.25
2022-09-25T11:15:24.899Z,72.85
2022-09-25T11:17:55.115Z,73.06
2022-09-25T11:20:29.628Z,73.15
2022-09-25T11:23:58.276Z,72.39
2022-09-25T11:26:33.649Z,72.54
2022-09-25T11:29:11.894Z,72.60
2022-09-25T11:31:46.104Z,72.35
2022-09-25T11:34:28.437Z,72.03
2022-09-25T11:37:06.820Z,72.63
2022-09-25T11:40:05.089Z,72.23
2022-09-25T11:42:39.929Z,72.28
2022-09-25T11:45:19.800Z,72.57
2022-09-25T11:47:55.881Z,72.35
2022-09-25T11:50:38.285Z,72.61
2022-09-25T11:53:19.300Z,72.90
2022-09-25T11:56:19.336Z,72.01
2022-09-25T11:59:02.934Z,72.17
2022-09-25T12:01:37.014Z,71.98
2022-09-25T12:04:32.392Z,71.76
2022-09-25T12:07:18.047Z,70.82
2022-09-25T12:10:04.238Z,70.36
2022-09-25T12:12:41.738Z,71.41
2022-09-25T12:15:23.054Z,70.74
2022-09-25T12:18:08.566Z,70.02
2022-09-25T12:20:49.931Z,68.93
2022-09-25T12:23:29.888Z,70.68
2022-09-25T12:26:15.637Z,70.49
2022-09-25T12:29:06.742Z,70.92
2022-09-25T12:31:52.473Z,70.41
2022-09-25T12:34:38.105Z,70.36
2022-09-25T12:37:23.081Z,70.33
2022-09-25T12:40:00.010Z,69.80
2022-09-25T12:42:40.865Z,68.99
2022-09-25T12:45:22.805Z,68.14
2022-09-25T12:48:15.200Z,68.27
2022-09-25T12:50:52.234Z,68.78
2022-09-25T12:53:31.827Z,69.47
2022-09-25T12:56:15.350Z,69.74
2022-09-25T12:59:06.503Z,69.48
2022-09-25T13:01:47.676Z,68.69
2022-09-25T13:04:44.198Z,68.88
2022-09-25T13:07:20.685Z,69.88
2022-09-25T13:09:51.603Z,69.80
2022-09-25T13:12:33.528Z,70.43
2022-09-25T13:15:09.381Z,70.29
2022-09-25T13:17:39.866Z,70.49
2022-09-25T13:20:55.486Z,69.78
2022-09-25T13:23:35.938Z,69.45
2022-09-25T13:26:13.050Z,69.76
2022-09-25T13:28:50.930Z,68.97
2022-09-25T13:31:25.940Z,69.39
2022-09-25T13:34:03.626Z,68.84
2022-09-25T13:36:40.376Z,68.24
2022-09-25T13:39:40.059Z,68.70
2022-09-25T13:42:16.984Z,69.02
2022-09-25T13:45:09.833Z,68.06
2022-09-25T13:47:54.798Z,68.05
2022-09-25T13:50:45.467Z,68.26
2022-09-25T13:53:29.023Z,68.74
2022-09-25T13:56:47.134Z,68.09
2022-09-25T13:59:37.432Z,68.03
2022-09-25T14:02:42.428Z,68.24
2022-09-25T14:05:18.072Z,68.64
2022-09-25T14:07:49.920Z,67.54
2022-09-25T14:10:18.992Z,67.62
2022-09-25T14:12:50.511Z,67.10
2022-09-25T14:15:30.312Z,67.10
2022-09-25T14:18:00.823Z,67.53
2022-09-25T14:20:39.658Z,68.22
2022-09-25T14:23:15.906Z,68.65
2022-09-25T14:25:46.796Z,68.17
2022-09-25T14:28:25.339Z,67.39
2022-09-25T14:31:23.671Z,66.19
2022-09-25T14:34:17.859Z,67.44
2022-09-25T14:37:01.581Z,67.66
2022-09-25T14:39:42.124Z,67.31
2022-09-25T14:42:52.938Z,67.47
2022-09-25T14:46:02.123Z,67.56
2022-09-25T14:48:37.901Z,68.04
2022-09-25T14:51:10.660Z,67.95
2022-09-25T14:53:44.410Z,67.65
2022-09-25T14:56:15.603Z,67.98
2022-09-25T14:58:49.511Z,67.75
2022-09-25T15:01:27.565Z,67.70
2022-09-25T15:04:01.146Z,68.34
2022-09-25T15:06:31.571Z,67.92
2022-09-25T15:09:01.725Z,67.14
2022-09-25T15:11:42.815Z,66.77
2022-09-25T15:14:12.422Z,67.08
2022-09-25T15:17:00.880Z,67.03
2022-09-25T15:19:34.663Z,67.11
2022-09-25T15:22:03.009Z,67.36
2022-09-25T15:24:35.215Z,67.26
2022-09-25T15:27:07.317Z,67.87
2022-09-25T15:29:38.225Z,68.03
2022-09-25T15:32:07.014Z,68.58
2022-09-25T15:34:35.634Z,68.58
2022-09-25T15:37:25.784Z,67.76
2022-09-25T15:39:54.411Z,67.97
2022-09-25T15:42:24.783Z,67.89
2022-09-25T15:44:54.736Z,67.96
2022-09-25T15:47:54.331Z,68.05
2022-09-25T15:50:26.807Z,68.25
2022-09-25T15:52:58.739Z,68.14
2022-09-25T15:55:29.285Z,68.19
2022-09-25T15:58:13.270Z,67.82
2022-09-25T16:01:13.371Z,68.01
2022-09-25T16:04:07.167Z,67.52
2022-09-25T16:06:43.405Z,67.54
2022-09-25T16:09:22.855Z,67.71
2022-09-25T16:11:51.745Z,68.30
2022-09-25T16:14:29.226Z,68.31
2022-09-25T16:16:59.965Z,68.68
2022-09-25T16:19:35.051Z,69.30
2022-09-25T16:22:23.788Z,69.20
2022-09-25T16:24:54.746Z,69.30
2022-09-25T16:27:28.777Z,68.96
2022-09-25T16:30:03.678Z,69.10
2022-09-25T16:32:32.818Z,69.17
2022-09-25T16:35:03.630Z,68.87
2022-09-25T16:37:35.895Z,68.42
2022-09-25T16:40:33.424Z,67.80
2022-09-25T16:43:02.400Z,68.02
2022-09-25T16:45:34.407Z,68.03
2022-09-25T16:48:29.233Z,68.08
2022-09-25T16:51:01.067Z,69.09
2022-09-25T16:53:29.363Z,69.60
2022-09-25T16:55:57.942Z,69.50
2022-09-25T16:58:26.783Z,69.83
2022-09-25T17:00:56.904Z,69.96
2022-09-25T17:03:25.068Z,70.03
2022-09-25T17:05:53.032Z,70.12
2022-09-25T17:08:24.934Z,70.41
2022-09-25T17:10:53.813Z,70.83
2022-09-25T17:13:30.725Z,70.68
2022-09-25T17:16:00.097Z,71.18
2022-09-25T17:18:28.244Z,71.02
2022-09-25T17:20:57.672Z,71.07
2022-09-25T17:23:27.163Z,71.13
2022-09-25T17:26:00.820Z,71.40
2022-09-25T17:28:29.458Z,71.22
2022-09-25T17:31:00.406Z,71.52
2022-09-25T17:33:30.278Z,71.32
2022-09-25T17:36:03.468Z,71.36
2022-09-25T17:38:33.780Z,71.16
2022-09-25T17:41:05.826Z,71.15
2022-09-25T17:43:34.577Z,71.11
2022-09-25T17:46:04.990Z,71.35
2022-09-25T17:48:34.025Z,71.42
2022-09-25T17:51:04.510Z,70.83
2022-09-25T17:53:34.566Z,70.72
2022-09-25T17:56:03.069Z,70.65
2022-09-25T17:58:32.844Z,70.55
2022-09-25T18:01:06.598Z,70.77
2022-09-25T18:03:34.682Z,70.66
2022-09-25T18:06:02.787Z,70.74
2022-09-25T18:08:31.053Z,70.20
2022-09-25T18:10:59.792Z,70.16
2022-09-25T18:13:27.815Z,70.13
2022-09-25T18:15:58.796Z,70.04
2022-09-25T18:18:49.465Z,70.64
2022-09-25T18:21:35.865Z,70.20
2022-09-25T18:24:04.251Z,70.74
2022-09-25T18:26:32.257Z,70.45
2022-09-25T18:29:00.321Z,70.39
2022-09-25T18:31:28.436Z,70.30
2022-09-25T18:33:57.747Z,70.58
2022-09-25T18:36:25.907Z,70.27
2022-09-25T18:38:54.895Z,70.47
2022-09-25T18:41:23.000Z,70.34
2022-09-25T18:43:51.087Z,70.68
2022-09-25T18:46:19.097Z,70.60
2022-09-25T18:48:47.753Z,70.27
2022-09-25T18:51:17.487Z,70.65
2022-09-25T18:53:50.094Z,70.59
2022-09-25T18:56:18.458Z,70.39
2022-09-25T18:58:47.885Z,70.61
2022-09-25T19:01:16.138Z,70.68
2022-09-25T19:03:44.792Z,70.57
2022-09-25T19:06:12.751Z,70.67
2022-09-25T19:08:42.058Z,70.81
2022-09-25T19:11:14.988Z,71.11
2022-09-25T19:13:43.130Z,70.17
2022-09-25T19:16:12.961Z,70.11
2022-09-25T19:18:42.838Z,70.80
2022-09-25T19:21:15.910Z,71.06
2022-09-25T19:23:47.686Z,70.97
2022-09-25T19:26:20.849Z,70.55
2022-09-25T19:28:49.336Z,71.30
2022-09-25T19:31:20.516Z,70.91
2022-09-25T19:33:48.914Z,71.36
2022-09-25T19:36:20.771Z,71.42
2022-09-25T19:38:50.122Z,71.22
2022-09-25T19:41:21.798Z,71.46
2022-09-25T19:43:49.909Z,71.57
2022-09-25T19:46:23.947Z,71.21
2022-09-25T19:48:52.189Z,71.35
2022-09-25T19:51:23.911Z,71.27
2022-09-25T19:53:54.568Z,71.40
2022-09-25T19:56:22.640Z,71.37
2022-09-25T19:58:51.744Z,71.77
2022-09-25T20:01:24.153Z,71.51
2022-09-25T20:03:52.951Z,71.39
2022-09-25T20:06:20.978Z,71.37
2022-09-25T20:08:49.472Z,71.33
2022-09-25T20:11:22.112Z,70.67
2022-09-25T20:13:52.245Z,70.84
2022-09-25T20:16:24.984Z,70.98
2022-09-25T20:18:57.555Z,71.13
2022-09-25T20:21:27.046Z,70.46
2022-09-25T20:23:57.753Z,70.32
2022-09-25T20:26:28.557Z,70.78
2022-09-25T20:28:59.937Z,70.39
2022-09-25T20:31:30.999Z,70.76
2022-09-25T20:33:59.592Z,70.50
2022-09-25T20:36:28.170Z,69.99
2022-09-25T20:38:57.816Z,69.95
2022-09-25T20:41:27.783Z,70.33
2022-09-25T20:43:58.620Z,69.98
2022-09-25T20:46:29.808Z,70.14
2022-09-25T20:48:59.198Z,70.51
2022-09-25T20:51:29.665Z,70.45
2022-09-25T20:54:00.579Z,70.23
2022-09-25T20:56:32.633Z,70.19
2022-09-25T20:59:02.144Z,70.17
2022-09-25T21:01:34.477Z,69.56
2022-09-25T21:04:05.817Z,69.70
2022-09-25T21:06:36.307Z,70.05
2022-09-25T21:09:08.436Z,70.29
2022-09-25T21:11:40.283Z,70.23
2022-09-25T21:14:11.925Z,70.25
2022-09-25T21:16:40.279Z,69.96
2022-09-25T21:19:09.863Z,70.41
2022-09-25T21:21:37.961Z,70.06
2022-09-25T21:24:08.261Z,70.07
2022-09-25T21:26:37.686Z,70.49
2022-09-25T21:29:08.889Z,70.21
2022-09-25T21:31:43.771Z,70.02
2022-09-25T21:34:18.675Z,70.49
2022-09-25T21:36:47.394Z,70.14
2022-09-25T21:39:16.117Z,69.93
2022-09-25T21:41:46.402Z,70.25
2022-09-25T21:44:16.945Z,70.17
2022-09-25T21:46:45.591Z,70.18
2022-09-25T21:49:19.306Z,70.73
2022-09-25T21:51:49.426Z,70.22
2022-09-25T21:54:18.472Z,71.04
2022-09-25T21:56:49.039Z,70.75
2022-09-25T21:59:17.243Z,70.45
2022-09-25T22:01:45.353Z,70.37
2022-09-25T22:04:15.000Z,70.67
2022-09-25T22:06:46.096Z,70.47
2022-09-25T22:09:17.185Z,70.18
2022-09-25T22:11:47.800Z,70.88
2022-09-25T22:14:16.946Z,71.28
2022-09-25T22:16:47.089Z,70.98
2022-09-25T22:19:18.163Z,70.95
2022-09-25T22:21:48.774Z,71.43
2022-09-25T22:24:17.032Z,71.86
2022-09-25T22:26:49.044Z,71.42
2022-09-25T22:29:18.707Z,71.60
2022-09-25T22:31:47.100Z,71.38
2022-09-25T22:34:19.663Z,71.28
2022-09-25T22:36:48.332Z,71.18
2022-09-25T22:39:19.898Z,71.54
2022-09-25T22:41:52.496Z,72.41
2022-09-25T22:44:21.120Z,72.00
2022-09-25T22:46:49.935Z,72.16
2022-09-25T22:49:18.203Z,71.49
2022-09-25T22:51:46.461Z,71.33
2022-09-25T22:54:15.729Z,71.57
2022-09-25T22:56:44.747Z,71.54
2022-09-25T22:59:17.997Z,71.27
2022-09-25T23:01:50.063Z,71.51
2022-09-25T23:04:21.007Z,71.78
2022-09-25T23:06:49.976Z,71.85
2022-09-25T23:09:21.236Z,71.48
2022-09-25T23:11:49.946Z,71.23
2022-09-25T23:14:22.195Z,71.47
2022-09-25T23:16:52.739Z,71.71
2022-09-25T23:19:22.176Z,70.92
2022-09-25T23:21:52.660Z,71.31
2022-09-25T23:24:23.094Z,71.29
2022-09-25T23:26:51.764Z,71.31
2022-09-25T23:29:22.697Z,71.34
2022-09-25T23:31:51.598Z,71.39
2022-09-25T23:34:20.298Z,71.06
2022-09-25T23:36:48.306Z,71.28
2022-09-25T23:39:19.114Z,70.90
2022-09-25T23:41:47.704Z,71.23
2022-09-25T23:44:15.762Z,71.02
2022-09-25T23:46:45.191Z,71.36
2022-09-25T23:49:14.057Z,70.99
2022-09-25T23:51:42.235Z,71.09
2022-09-25T23:54:12.144Z,71.14
2022-09-25T23:56:41.106Z,70.96
2022-09-25T23:59:11.799Z,71.20
